createdAt,value
2019-03-05T00:00:49.032Z,15.67
2019-03-05T00:01:54.256Z,15.68
2019-03-05T00:02:56.496Z,15.67
2019-03-05T00:03:58.727Z,15.68
2019-03-05T00:05:01.272Z,15.68
2019-03-05T00:06:03.468Z,15.68
2019-03-05T00:07:05.674Z,15.67
2019-03-05T00:08:07.888Z,15.68
2019-03-05T00:09:11.958Z,15.68
2019-03-05T00:10:14.212Z,15.68
2019-03-05T00:11:16.419Z,15.69
2019-03-05T00:12:20.392Z,15.68
2019-03-05T00:13:22.592Z,15.69
2019-03-05T00:14:24.799Z,15.69
2019-03-05T00:15:27.822Z,15.68
2019-03-05T00:16:30.028Z,15.69
2019-03-05T00:17:32.260Z,15.68
2019-03-05T00:18:34.465Z,15.69
2019-03-05T00:19:36.682Z,15.69
2019-03-05T00:20:38.910Z,15.69
2019-03-05T00:21:41.126Z,15.69
2019-03-05T00:22:43.353Z,15.68
2019-03-05T00:23:45.583Z,15.69
2019-03-05T00:24:47.850Z,15.69
2019-03-05T00:25:50.037Z,15.69
2019-03-05T00:26:52.243Z,15.69
2019-03-05T00:27:54.462Z,15.69
2019-03-05T00:28:56.659Z,15.69
2019-03-05T00:29:58.890Z,15.70
2019-03-05T00:31:01.096Z,15.70
2019-03-05T00:32:03.294Z,15.68
2019-03-05T00:33:05.504Z,15.69
2019-03-05T00:34:07.816Z,15.69
2019-03-05T00:35:10.054Z,15.69
2019-03-05T00:36:12.269Z,15.69
2019-03-05T00:37:14.464Z,15.70
2019-03-05T00:38:16.828Z,15.69
2019-03-05T00:39:19.073Z,15.69
2019-03-05T00:40:21.313Z,15.70
2019-03-05T00:41:25.315Z,15.68
2019-03-05T00:42:27.486Z,15.69
2019-03-05T00:43:29.710Z,15.69
2019-03-05T00:44:35.057Z,15.69
2019-03-05T00:45:37.299Z,15.69
2019-03-05T00:46:39.510Z,15.69
2019-03-05T00:47:41.802Z,15.69
2019-03-05T00:48:47.275Z,15.69
2019-03-05T00:49:49.493Z,15.69
2019-03-05T00:50:51.734Z,15.69
2019-03-05T00:51:53.931Z,15.70
2019-03-05T00:52:56.159Z,15.70
2019-03-05T00:54:00.335Z,15.70
2019-03-05T00:55:02.207Z,15.69
2019-03-05T00:56:04.438Z,15.70
2019-03-05T00:57:06.655Z,15.69
2019-03-05T00:58:08.871Z,15.69
2019-03-05T00:59:11.059Z,15.70
2019-03-05T01:00:13.362Z,15.69
2019-03-05T01:01:15.997Z,15.69
2019-03-05T01:02:18.216Z,15.69
2019-03-05T01:03:20.417Z,15.70
2019-03-05T01:04:25.515Z,15.70
2019-03-05T01:05:27.968Z,15.69
2019-03-05T01:06:30.178Z,15.69
2019-03-05T01:07:32.366Z,15.69
2019-03-05T01:08:34.575Z,15.69
2019-03-05T01:09:36.761Z,15.70
2019-03-05T01:10:38.971Z,15.70
2019-03-05T01:11:42.986Z,15.69
2019-03-05T01:12:45.103Z,15.70
2019-03-05T01:13:47.309Z,15.70
2019-03-05T01:14:51.093Z,15.70
2019-03-05T01:15:53.294Z,15.70
2019-03-05T01:16:55.534Z,15.71
2019-03-05T01:17:57.743Z,15.70
2019-03-05T01:18:59.947Z,15.70
2019-03-05T01:20:02.153Z,15.70
2019-03-05T01:21:04.353Z,15.71
2019-03-05T01:22:06.586Z,15.71
2019-03-05T01:23:08.799Z,15.70
2019-03-05T01:24:11.007Z,15.70
2019-03-05T01:25:13.207Z,15.70
2019-03-05T01:26:15.511Z,15.70
2019-03-05T01:27:17.739Z,15.71
2019-03-05T01:28:19.947Z,15.69
2019-03-05T01:29:22.151Z,15.69
2019-03-05T01:30:24.345Z,15.70
2019-03-05T01:31:54.543Z,15.71
2019-03-05T01:33:04.069Z,15.70
2019-03-05T01:34:10.708Z,15.71
2019-03-05T01:35:31.956Z,15.71
2019-03-05T01:36:36.843Z,15.70
2019-03-05T01:37:39.047Z,15.70
2019-03-05T01:39:00.245Z,15.69
2019-03-05T01:40:33.487Z,15.70
2019-03-05T01:41:35.681Z,15.69
2019-03-05T01:42:37.983Z,15.70
2019-03-05T01:43:40.203Z,15.70
2019-03-05T01:44:42.412Z,15.70
2019-03-05T01:45:44.619Z,15.70
2019-03-05T01:46:46.830Z,15.70
2019-03-05T01:47:49.025Z,15.70
2019-03-05T01:48:51.245Z,15.70
2019-03-05T01:49:53.451Z,15.71
2019-03-05T01:50:55.651Z,15.70
2019-03-05T01:51:57.843Z,15.70
2019-03-05T01:53:00.035Z,15.70
2019-03-05T01:54:02.241Z,15.71
2019-03-05T01:55:06.919Z,15.72
2019-03-05T01:56:09.118Z,15.70
2019-03-05T01:57:11.331Z,15.71
2019-03-05T01:58:13.543Z,15.70
2019-03-05T01:59:15.775Z,15.71
2019-03-05T02:00:17.982Z,15.71
2019-03-05T02:01:20.189Z,15.71
2019-03-05T02:02:22.389Z,15.71
2019-03-05T02:03:24.599Z,15.70
2019-03-05T02:04:26.821Z,15.70
2019-03-05T02:05:29.018Z,15.71
2019-03-05T02:06:31.217Z,15.71
2019-03-05T02:07:33.419Z,15.70
2019-03-05T02:08:35.617Z,15.72
2019-03-05T02:09:37.871Z,15.72
2019-03-05T02:10:40.061Z,15.70
2019-03-05T02:11:42.283Z,15.70
2019-03-05T02:12:44.479Z,15.70
2019-03-05T02:13:46.689Z,15.70
2019-03-05T02:14:48.918Z,15.71
2019-03-05T02:15:51.121Z,15.70
2019-03-05T02:16:53.323Z,15.71
2019-03-05T02:17:55.542Z,15.70
2019-03-05T02:18:57.747Z,15.70
2019-03-05T02:19:59.956Z,15.71
2019-03-05T02:21:02.163Z,15.70
2019-03-05T02:22:04.399Z,15.70
2019-03-05T02:23:06.599Z,15.69
2019-03-05T02:24:08.803Z,15.70
2019-03-05T02:25:11.053Z,15.71
2019-03-05T02:26:13.256Z,15.71
2019-03-05T02:27:15.467Z,15.70
2019-03-05T02:28:17.655Z,15.70
2019-03-05T02:29:19.875Z,15.70
2019-03-05T02:30:22.118Z,15.70
2019-03-05T02:31:24.547Z,15.69
2019-03-05T02:32:26.763Z,15.70
2019-03-05T02:33:28.966Z,15.70
2019-03-05T02:34:31.164Z,15.70
2019-03-05T02:35:33.405Z,15.70
2019-03-05T02:36:35.627Z,15.70
2019-03-05T02:37:39.542Z,15.70
2019-03-05T02:38:41.737Z,15.70
2019-03-05T02:39:43.951Z,15.71
2019-03-05T02:40:46.188Z,15.70
2019-03-05T02:41:48.397Z,15.70
2019-03-05T02:42:50.600Z,15.71
2019-03-05T02:43:52.798Z,15.70
2019-03-05T02:44:55.019Z,15.70
2019-03-05T02:45:57.270Z,15.69
2019-03-05T02:46:59.481Z,15.70
2019-03-05T02:48:01.694Z,15.69
2019-03-05T02:49:03.902Z,15.70
2019-03-05T02:50:06.116Z,15.70
2019-03-05T02:51:08.359Z,15.71
2019-03-05T02:52:10.659Z,15.71
2019-03-05T02:53:12.866Z,15.70
2019-03-05T02:54:15.072Z,15.70
2019-03-05T02:55:17.276Z,15.70
2019-03-05T02:56:19.519Z,15.70
2019-03-05T02:57:21.730Z,15.70
2019-03-05T02:58:23.951Z,15.70
2019-03-05T02:59:26.158Z,15.69
2019-03-05T03:00:47.023Z,15.69
2019-03-05T03:02:14.364Z,15.69
2019-03-05T03:03:35.527Z,15.70
2019-03-05T03:04:41.028Z,15.70
2019-03-05T03:05:52.160Z,15.70
2019-03-05T03:06:54.390Z,15.69
2019-03-05T03:07:56.596Z,15.71
2019-03-05T03:08:58.902Z,15.70
2019-03-05T03:10:01.091Z,15.69
2019-03-05T03:11:03.297Z,15.69
2019-03-05T03:12:07.215Z,15.69
2019-03-05T03:13:09.410Z,15.69
2019-03-05T03:14:11.621Z,15.69
2019-03-05T03:15:13.806Z,15.69
2019-03-05T03:16:17.874Z,15.69
2019-03-05T03:17:20.093Z,15.69
2019-03-05T03:18:22.286Z,15.69
2019-03-05T03:19:24.488Z,15.70
2019-03-05T03:20:26.692Z,15.69
2019-03-05T03:21:28.908Z,15.69
2019-03-05T03:22:31.142Z,15.70
2019-03-05T03:23:33.365Z,15.69
2019-03-05T03:24:36.770Z,15.69
2019-03-05T03:25:38.940Z,15.69
2019-03-05T03:26:41.158Z,15.69
2019-03-05T03:27:43.390Z,15.69
2019-03-05T03:28:45.602Z,15.69
2019-03-05T03:29:47.810Z,15.70
2019-03-05T03:30:50.033Z,15.69
2019-03-05T03:31:52.222Z,15.70
2019-03-05T03:32:54.448Z,15.71
2019-03-05T03:33:56.641Z,15.69
2019-03-05T03:34:58.851Z,15.70
2019-03-05T03:36:01.049Z,15.70
2019-03-05T03:37:03.252Z,15.70
2019-03-05T03:38:05.495Z,15.69
2019-03-05T03:39:07.689Z,15.70
2019-03-05T03:40:09.987Z,15.69
2019-03-05T03:41:12.304Z,15.69
2019-03-05T03:42:14.506Z,15.70
2019-03-05T03:43:16.721Z,15.69
2019-03-05T03:44:18.929Z,15.69
2019-03-05T03:45:21.111Z,15.70
2019-03-05T03:46:23.323Z,15.69
2019-03-05T03:47:25.530Z,15.69
2019-03-05T03:48:29.307Z,15.69
2019-03-05T03:49:31.511Z,15.70
2019-03-05T03:50:33.706Z,15.70
2019-03-05T03:51:35.908Z,15.70
2019-03-05T03:52:38.107Z,15.70
2019-03-05T03:53:40.331Z,15.69
2019-03-05T03:54:42.538Z,15.69
2019-03-05T03:55:44.746Z,15.69
2019-03-05T03:56:46.940Z,15.70
2019-03-05T03:57:49.144Z,15.70
2019-03-05T03:58:51.370Z,15.70
2019-03-05T03:59:53.580Z,15.70
2019-03-05T04:00:55.805Z,15.70
2019-03-05T04:01:58.015Z,15.70
2019-03-05T04:03:00.219Z,15.69
2019-03-05T04:04:02.419Z,15.70
2019-03-05T04:05:04.627Z,15.70
2019-03-05T04:06:06.950Z,15.69
2019-03-05T04:07:09.172Z,15.70
2019-03-05T04:08:11.348Z,15.69
2019-03-05T04:09:13.571Z,15.69
2019-03-05T04:10:15.769Z,15.70
2019-03-05T04:11:17.969Z,15.70
2019-03-05T04:12:20.162Z,15.70
2019-03-05T04:13:22.375Z,15.70
2019-03-05T04:14:24.694Z,15.70
2019-03-05T04:15:26.897Z,15.70
2019-03-05T04:16:29.095Z,15.70
2019-03-05T04:17:31.302Z,15.69
2019-03-05T04:18:33.789Z,15.70
2019-03-05T04:19:36.298Z,15.71
2019-03-05T04:20:56.422Z,15.70
2019-03-05T04:21:58.620Z,15.70
2019-03-05T04:23:01.107Z,15.70
2019-03-05T04:24:03.290Z,15.70
2019-03-05T04:25:05.514Z,15.70
2019-03-05T04:26:07.725Z,15.70
2019-03-05T04:27:09.921Z,15.69
2019-03-05T04:28:12.115Z,15.70
2019-03-05T04:29:14.351Z,15.70
2019-03-05T04:30:16.612Z,15.69
2019-03-05T04:31:18.813Z,15.70
2019-03-05T04:32:23.722Z,15.69
2019-03-05T04:33:24.853Z,15.70
2019-03-05T04:34:27.063Z,15.69
2019-03-05T04:35:29.288Z,15.69
2019-03-05T04:36:31.487Z,15.69
2019-03-05T04:37:33.707Z,15.69
2019-03-05T04:38:35.907Z,15.69
2019-03-05T04:39:38.110Z,15.70
2019-03-05T04:40:40.337Z,15.70
2019-03-05T04:41:42.527Z,15.69
2019-03-05T04:42:44.721Z,15.69
2019-03-05T04:43:47.225Z,15.69
2019-03-05T04:45:09.436Z,15.70
2019-03-05T04:46:30.643Z,15.70
2019-03-05T04:47:32.847Z,15.69
2019-03-05T04:48:35.076Z,15.70
2019-03-05T04:49:51.097Z,15.70
2019-03-05T04:51:01.775Z,15.70
2019-03-05T04:52:10.949Z,15.70
2019-03-05T04:53:13.173Z,15.69
2019-03-05T04:54:15.371Z,15.70
2019-03-05T04:55:17.571Z,15.70
2019-03-05T04:56:19.981Z,15.69
2019-03-05T04:57:22.224Z,15.69
2019-03-05T04:58:24.419Z,15.70
2019-03-05T04:59:29.431Z,15.69
2019-03-05T05:00:31.650Z,15.70
2019-03-05T05:01:33.868Z,15.70
2019-03-05T05:02:36.091Z,15.69
2019-03-05T05:03:38.304Z,15.70
2019-03-05T05:04:40.643Z,15.70
2019-03-05T05:05:42.749Z,15.69
2019-03-05T05:06:44.957Z,15.70
2019-03-05T05:07:47.209Z,15.70
2019-03-05T05:08:49.488Z,15.69
2019-03-05T05:09:51.693Z,15.69
2019-03-05T05:10:53.891Z,15.69
2019-03-05T05:11:56.135Z,15.69
2019-03-05T05:12:58.386Z,15.70
2019-03-05T05:14:00.584Z,15.68
2019-03-05T05:15:02.792Z,15.69
2019-03-05T05:16:05.011Z,15.69
2019-03-05T05:17:07.309Z,15.69
2019-03-05T05:18:11.734Z,15.69
2019-03-05T05:19:13.901Z,15.69
2019-03-05T05:20:16.120Z,15.69
2019-03-05T05:21:18.330Z,15.69
2019-03-05T05:22:20.569Z,15.69
2019-03-05T05:23:22.783Z,15.70
2019-03-05T05:24:25.004Z,15.70
2019-03-05T05:25:27.217Z,15.68
2019-03-05T05:26:29.434Z,15.69
2019-03-05T05:27:31.645Z,15.69
2019-03-05T05:28:33.888Z,15.70
2019-03-05T05:29:36.089Z,15.70
2019-03-05T05:30:38.288Z,15.70
2019-03-05T05:31:40.499Z,15.70
2019-03-05T05:32:42.695Z,15.70
2019-03-05T05:33:44.912Z,15.70
2019-03-05T05:34:47.116Z,15.70
2019-03-05T05:35:49.322Z,15.70
2019-03-05T05:36:51.526Z,15.70
2019-03-05T05:37:53.730Z,15.70
2019-03-05T05:38:55.960Z,15.70
2019-03-05T05:39:58.169Z,15.70
2019-03-05T05:41:00.497Z,15.70
2019-03-05T05:42:02.692Z,15.69
2019-03-05T05:43:04.906Z,15.70
2019-03-05T05:44:07.136Z,15.71
2019-03-05T05:45:09.332Z,15.70
2019-03-05T05:46:11.636Z,15.69
2019-03-05T05:47:13.852Z,15.70
2019-03-05T05:48:16.246Z,15.70
2019-03-05T05:49:18.491Z,15.71
2019-03-05T05:50:20.686Z,15.70
2019-03-05T05:51:22.886Z,15.69
2019-03-05T05:52:25.090Z,15.69
2019-03-05T05:53:27.385Z,15.70
2019-03-05T05:54:29.636Z,15.70
2019-03-05T05:55:31.832Z,15.71
2019-03-05T05:56:34.046Z,15.72
2019-03-05T05:57:36.259Z,15.72
2019-03-05T05:58:38.777Z,15.72
2019-03-05T05:59:41.016Z,15.71
2019-03-05T06:00:48.588Z,15.72
2019-03-05T06:01:50.790Z,15.72
2019-03-05T06:02:53.003Z,15.72
2019-03-05T06:03:55.212Z,15.74
2019-03-05T06:04:57.444Z,15.73
2019-03-05T06:05:59.670Z,15.74
2019-03-05T06:07:01.860Z,15.73
2019-03-05T06:08:04.060Z,15.73
2019-03-05T06:09:06.268Z,15.73
2019-03-05T06:10:08.495Z,15.73
2019-03-05T06:11:12.625Z,15.74
2019-03-05T06:12:14.690Z,15.73
2019-03-05T06:13:16.916Z,15.72
2019-03-05T06:14:19.129Z,15.73
2019-03-05T06:15:21.361Z,15.73
2019-03-05T06:16:23.567Z,15.73
2019-03-05T06:17:25.758Z,15.71
2019-03-05T06:18:27.974Z,15.72
2019-03-05T06:19:30.178Z,15.72
2019-03-05T06:20:32.424Z,15.72
2019-03-05T06:21:34.624Z,15.72
2019-03-05T06:22:36.838Z,15.72
2019-03-05T06:23:40.618Z,15.72
2019-03-05T06:24:42.820Z,15.72
2019-03-05T06:25:45.062Z,15.73
2019-03-05T06:26:47.271Z,15.72
2019-03-05T06:27:49.488Z,15.71
2019-03-05T06:28:51.682Z,15.71
2019-03-05T06:29:55.660Z,15.71
2019-03-05T06:30:57.906Z,15.70
2019-03-05T06:32:00.073Z,15.70
2019-03-05T06:33:02.274Z,15.71
2019-03-05T06:34:04.489Z,15.70
2019-03-05T06:35:06.694Z,15.71
2019-03-05T06:36:08.899Z,15.71
2019-03-05T06:37:11.118Z,15.70
2019-03-05T06:38:13.318Z,15.69
2019-03-05T06:39:15.514Z,15.70
2019-03-05T06:40:17.810Z,15.70
2019-03-05T06:41:20.056Z,15.69
2019-03-05T06:42:22.264Z,15.70
2019-03-05T06:43:24.454Z,15.70
2019-03-05T06:44:26.662Z,15.70
2019-03-05T06:45:28.885Z,15.70
2019-03-05T06:46:31.109Z,15.69
2019-03-05T06:47:33.289Z,15.70
2019-03-05T06:48:35.479Z,15.69
2019-03-05T06:49:37.767Z,15.69
2019-03-05T06:50:39.921Z,15.69
2019-03-05T06:51:42.131Z,15.69
2019-03-05T06:52:44.348Z,15.70
2019-03-05T06:53:46.553Z,15.69
2019-03-05T06:54:48.769Z,15.69
2019-03-05T06:55:50.946Z,15.69
2019-03-05T06:56:53.192Z,15.69
2019-03-05T06:57:55.390Z,15.69
2019-03-05T06:58:57.591Z,15.69
2019-03-05T06:59:59.845Z,15.69
2019-03-05T07:01:02.040Z,15.70
2019-03-05T07:02:04.296Z,15.70
2019-03-05T07:03:06.514Z,15.71
2019-03-05T07:04:08.779Z,15.69
2019-03-05T07:05:10.999Z,15.69
2019-03-05T07:06:13.205Z,15.70
2019-03-05T07:07:15.451Z,15.70
2019-03-05T07:08:17.641Z,15.70
2019-03-05T07:09:19.848Z,15.69
2019-03-05T07:10:22.061Z,15.70
2019-03-05T07:11:24.494Z,15.70
2019-03-05T07:12:26.723Z,15.70
2019-03-05T07:13:28.923Z,15.70
2019-03-05T07:14:31.150Z,15.70
2019-03-05T07:15:33.374Z,15.70
2019-03-05T07:16:35.578Z,15.70
2019-03-05T07:17:37.829Z,15.70
2019-03-05T07:18:40.035Z,15.69
2019-03-05T07:19:42.235Z,15.70
2019-03-05T07:20:44.743Z,15.70
2019-03-05T07:21:46.941Z,15.69
2019-03-05T07:22:49.177Z,15.69
2019-03-05T07:23:52.919Z,15.69
2019-03-05T07:24:55.192Z,15.69
2019-03-05T07:25:57.393Z,15.69
2019-03-05T07:26:59.593Z,15.69
2019-03-05T07:28:01.840Z,15.69
2019-03-05T07:29:04.070Z,15.68
2019-03-05T07:30:06.308Z,15.67
2019-03-05T07:31:08.500Z,15.68
2019-03-05T07:32:10.713Z,15.69
2019-03-05T07:33:12.949Z,15.68
2019-03-05T07:34:21.863Z,15.68
2019-03-05T07:35:25.774Z,15.68
2019-03-05T07:36:27.971Z,15.69
2019-03-05T07:37:30.187Z,15.69
2019-03-05T07:38:32.399Z,15.68
2019-03-05T07:39:34.616Z,15.68
2019-03-05T07:40:36.835Z,15.69
2019-03-05T07:41:39.040Z,15.68
2019-03-05T07:42:41.257Z,15.69
2019-03-05T07:43:43.475Z,15.69
2019-03-05T07:44:45.710Z,15.69
2019-03-05T07:45:47.911Z,15.69
2019-03-05T07:46:50.128Z,15.69
2019-03-05T07:47:52.336Z,15.70
2019-03-05T07:48:54.546Z,15.70
2019-03-05T07:49:56.740Z,15.70
2019-03-05T07:50:58.986Z,15.70
2019-03-05T07:52:01.183Z,15.70
2019-03-05T07:53:03.461Z,15.70
2019-03-05T07:54:05.691Z,15.71
2019-03-05T07:55:13.715Z,15.70
2019-03-05T07:56:11.761Z,15.69
2019-03-05T07:57:13.984Z,15.69
2019-03-05T07:58:16.293Z,15.69
2019-03-05T07:59:18.495Z,15.69
2019-03-05T08:00:20.698Z,15.69
2019-03-05T08:01:22.916Z,15.68
2019-03-05T08:02:25.138Z,15.69
2019-03-05T08:03:27.411Z,15.69
2019-03-05T08:04:32.631Z,15.69
2019-03-05T08:05:34.840Z,15.68
2019-03-05T08:06:37.044Z,15.68
2019-03-05T08:07:39.270Z,15.69
2019-03-05T08:08:41.489Z,15.68
2019-03-05T08:09:43.697Z,15.68
2019-03-05T08:10:45.919Z,15.68
2019-03-05T08:11:48.133Z,15.67
2019-03-05T08:12:50.334Z,15.67
2019-03-05T08:13:52.572Z,15.66
2019-03-05T08:14:54.772Z,15.67
2019-03-05T08:16:09.763Z,15.67
2019-03-05T08:17:12.050Z,15.68
2019-03-05T08:18:14.179Z,15.67
2019-03-05T08:19:16.421Z,15.67
2019-03-05T08:20:18.630Z,15.67
2019-03-05T08:21:20.825Z,15.67
2019-03-05T08:22:23.030Z,15.67
2019-03-05T08:23:25.342Z,15.66
2019-03-05T08:25:50.412Z,15.64
2019-03-05T08:26:52.634Z,15.65
2019-03-05T08:27:54.856Z,15.65
2019-03-05T08:29:03.108Z,15.66
2019-03-05T08:30:13.685Z,15.65
2019-03-05T08:31:09.431Z,15.65
2019-03-05T08:32:13.351Z,15.64
2019-03-05T08:33:15.552Z,15.64
2019-03-05T08:34:17.870Z,15.65
2019-03-05T08:35:20.100Z,15.65
2019-03-05T08:36:22.377Z,15.64
2019-03-05T08:37:24.708Z,15.66
2019-03-05T08:38:26.922Z,15.66
2019-03-05T08:39:29.124Z,15.66
2019-03-05T08:40:31.340Z,15.65
2019-03-05T08:41:33.544Z,15.65
2019-03-05T08:42:35.742Z,15.65
2019-03-05T08:43:37.948Z,15.66
2019-03-05T08:44:49.947Z,15.65
2019-03-05T08:45:44.042Z,15.65
2019-03-05T08:46:46.254Z,15.66
2019-03-05T08:47:48.578Z,15.66
2019-03-05T08:48:50.775Z,15.64
2019-03-05T08:49:53.120Z,15.64
2019-03-05T08:50:55.334Z,15.65
2019-03-05T08:51:57.546Z,15.66
2019-03-05T08:52:59.782Z,15.66
2019-03-05T08:54:01.987Z,15.67
2019-03-05T08:55:04.211Z,15.68
2019-03-05T08:56:06.401Z,15.68
2019-03-05T08:57:11.305Z,15.68
2019-03-05T08:58:15.423Z,15.68
2019-03-05T08:59:17.359Z,15.68
2019-03-05T09:00:19.573Z,15.69
2019-03-05T09:01:21.792Z,15.69
2019-03-05T09:02:24.000Z,15.69
2019-03-05T09:03:26.209Z,15.71
2019-03-05T09:04:28.532Z,15.70
2019-03-05T09:05:30.751Z,15.70
2019-03-05T09:06:32.960Z,15.70
2019-03-05T09:07:35.160Z,15.69
2019-03-05T09:08:38.495Z,15.69
2019-03-05T09:09:40.883Z,15.68
2019-03-05T09:10:45.812Z,15.67
2019-03-05T09:11:48.008Z,15.66
2019-03-05T09:12:53.295Z,15.66
2019-03-05T09:13:55.488Z,15.67
2019-03-05T09:14:57.780Z,15.69
2019-03-05T09:15:59.998Z,15.69
2019-03-05T09:17:02.290Z,15.70
2019-03-05T09:18:04.494Z,15.70
2019-03-05T09:19:06.698Z,15.69
2019-03-05T09:20:08.972Z,15.68
2019-03-05T09:21:11.130Z,15.67
2019-03-05T09:22:13.395Z,15.67
2019-03-05T09:23:15.594Z,15.67
2019-03-05T09:24:17.783Z,15.67
2019-03-05T09:25:20.032Z,15.67
2019-03-05T09:26:22.257Z,15.66
2019-03-05T09:27:24.465Z,15.67
2019-03-05T09:28:26.679Z,15.66
2019-03-05T09:29:28.888Z,15.67
2019-03-05T09:30:31.120Z,15.67
2019-03-05T09:31:33.323Z,15.71
2019-03-05T09:32:35.524Z,15.74
2019-03-05T09:33:37.731Z,15.74
2019-03-05T09:34:39.931Z,15.75
2019-03-05T09:35:42.143Z,15.79
2019-03-05T09:38:10.288Z,15.80
2019-03-05T09:39:12.491Z,15.82
2019-03-05T09:40:14.748Z,15.84
2019-03-05T09:41:16.910Z,15.84
2019-03-05T09:42:19.134Z,15.82
2019-03-05T09:43:21.343Z,15.83
2019-03-05T09:44:23.550Z,15.79
2019-03-05T09:45:28.076Z,15.76
2019-03-05T09:46:29.639Z,15.76
2019-03-05T09:47:31.839Z,15.74
2019-03-05T09:48:34.054Z,15.75
2019-03-05T09:49:36.235Z,15.73
2019-03-05T09:50:38.766Z,15.72
2019-03-05T09:51:41.153Z,15.70
2019-03-05T09:52:54.193Z,15.70
2019-03-05T09:53:47.232Z,15.70
2019-03-05T09:54:49.444Z,15.70
2019-03-05T09:55:51.775Z,15.68
2019-03-05T09:56:53.989Z,15.66
2019-03-05T09:58:06.888Z,15.68
2019-03-05T09:59:00.070Z,15.69
2019-03-05T10:00:02.259Z,15.69
2019-03-05T10:01:04.491Z,15.68
2019-03-05T10:02:06.901Z,15.68
2019-03-05T10:03:09.112Z,15.68
2019-03-05T10:04:11.317Z,15.71
2019-03-05T10:05:13.537Z,15.70
2019-03-05T10:06:18.600Z,15.70
2019-03-05T10:07:21.258Z,15.73
2019-03-05T10:08:31.924Z,15.72
2019-03-05T10:09:27.900Z,15.73
2019-03-05T10:10:30.734Z,15.72
2019-03-05T10:11:33.646Z,15.74
2019-03-05T10:12:36.071Z,15.72
2019-03-05T10:13:38.742Z,15.71
2019-03-05T10:14:41.342Z,15.69
2019-03-05T10:15:43.869Z,15.72
2019-03-05T10:16:46.483Z,15.70
2019-03-05T10:17:50.137Z,15.70
2019-03-05T10:18:52.920Z,15.71
2019-03-05T10:19:55.623Z,15.76
2019-03-05T10:20:58.343Z,15.77
2019-03-05T10:22:01.015Z,15.82
2019-03-05T10:23:03.623Z,15.82
2019-03-05T10:24:10.433Z,15.80
2019-03-05T10:25:12.771Z,15.77
2019-03-05T10:26:14.455Z,15.76
2019-03-05T10:27:17.072Z,15.76
2019-03-05T10:28:19.490Z,15.78
2019-03-05T10:29:22.182Z,15.79
2019-03-05T10:30:25.375Z,15.81
2019-03-05T10:31:28.216Z,15.81
2019-03-05T10:32:31.093Z,15.79
2019-03-05T10:33:33.756Z,15.74
2019-03-05T10:34:36.835Z,15.71
2019-03-05T10:35:41.486Z,15.73
2019-03-05T10:36:43.914Z,15.72
2019-03-05T10:37:46.585Z,15.70
2019-03-05T10:38:56.830Z,15.70
2019-03-05T10:39:53.355Z,15.73
2019-03-05T10:40:55.787Z,15.72
2019-03-05T10:41:58.490Z,15.70
2019-03-05T10:43:08.403Z,15.68
2019-03-05T10:44:04.541Z,15.69
2019-03-05T10:45:06.748Z,15.74
2019-03-05T10:46:08.961Z,15.73
2019-03-05T10:47:11.204Z,15.74
2019-03-05T10:48:14.405Z,15.71
2019-03-05T10:49:16.621Z,15.69
2019-03-05T10:50:18.827Z,15.67
2019-03-05T10:51:21.080Z,15.68
2019-03-05T10:52:23.295Z,15.77
2019-03-05T10:53:25.484Z,15.78
2019-03-05T10:54:27.715Z,15.79
2019-03-05T10:55:29.924Z,15.82
2019-03-05T10:56:32.150Z,15.82
2019-03-05T10:57:34.386Z,15.76
2019-03-05T10:58:36.545Z,15.73
2019-03-05T10:59:38.751Z,15.70
2019-03-05T11:00:40.965Z,15.72
2019-03-05T11:01:43.186Z,15.76
2019-03-05T11:02:45.402Z,15.80
2019-03-05T11:03:47.615Z,15.87
2019-03-05T11:04:52.254Z,15.86
2019-03-05T11:05:53.670Z,15.85
2019-03-05T11:06:55.891Z,15.92
2019-03-05T11:07:58.084Z,15.95
2019-03-05T11:09:00.291Z,15.96
2019-03-05T11:10:02.496Z,15.94
2019-03-05T11:11:12.958Z,15.94
2019-03-05T11:12:08.782Z,15.97
2019-03-05T11:13:10.996Z,16.01
2019-03-05T11:14:13.314Z,16.02
2019-03-05T11:15:15.533Z,15.97
2019-03-05T11:16:30.150Z,15.92
2019-03-05T11:17:23.786Z,15.83
2019-03-05T11:18:29.645Z,15.80
2019-03-05T11:19:31.206Z,15.75
2019-03-05T11:20:35.122Z,15.72
2019-03-05T11:21:37.349Z,15.70
2019-03-05T11:22:39.556Z,15.76
2019-03-05T11:23:41.755Z,15.80
2019-03-05T11:24:44.070Z,15.85
2019-03-05T11:25:46.496Z,15.85
2019-03-05T11:26:48.702Z,15.79
2019-03-05T11:27:50.896Z,15.82
2019-03-05T11:28:54.736Z,15.80
2019-03-05T11:30:01.036Z,15.79
2019-03-05T11:31:03.334Z,15.81
2019-03-05T11:32:05.534Z,15.82
2019-03-05T11:33:07.754Z,15.77
2019-03-05T11:34:09.960Z,15.78
2019-03-05T11:35:12.168Z,15.77
2019-03-05T11:36:14.420Z,15.80
2019-03-05T11:37:16.629Z,15.75
2019-03-05T11:38:18.822Z,15.73
2019-03-05T11:39:21.021Z,15.71
2019-03-05T11:40:23.224Z,15.72
2019-03-05T11:41:25.418Z,15.75
2019-03-05T11:42:27.634Z,15.75
2019-03-05T11:43:29.833Z,15.80
2019-03-05T11:44:32.615Z,15.77
2019-03-05T11:45:34.834Z,15.75
2019-03-05T11:46:39.517Z,15.73
2019-03-05T11:47:41.738Z,15.74
2019-03-05T11:48:44.074Z,15.76
2019-03-05T11:49:46.290Z,15.84
2019-03-05T11:50:48.494Z,15.89
2019-03-05T11:51:50.766Z,15.93
2019-03-05T11:52:52.996Z,15.92
2019-03-05T11:53:55.218Z,15.92
2019-03-05T11:54:57.479Z,15.93
2019-03-05T11:55:59.621Z,15.92
2019-03-05T11:57:01.882Z,15.87
2019-03-05T11:58:04.216Z,15.88
2019-03-05T11:59:06.477Z,15.91
2019-03-05T12:00:08.905Z,15.92
2019-03-05T12:01:20.414Z,15.94
2019-03-05T12:02:22.666Z,15.94
2019-03-05T12:03:24.874Z,15.95
2019-03-05T12:04:27.064Z,15.95
2019-03-05T12:05:29.279Z,15.96
2019-03-05T12:06:31.474Z,15.98
2019-03-05T12:07:33.704Z,15.99
2019-03-05T12:08:35.897Z,16.00
2019-03-05T12:09:38.182Z,15.99
2019-03-05T12:10:40.397Z,15.98
2019-03-05T12:11:42.748Z,15.99
2019-03-05T12:12:44.996Z,15.97
2019-03-05T12:13:47.302Z,15.95
2019-03-05T12:14:49.506Z,15.90
2019-03-05T12:15:51.701Z,15.84
2019-03-05T12:16:53.919Z,15.83
2019-03-05T12:17:56.131Z,15.79
2019-03-05T12:18:58.647Z,15.78
2019-03-05T12:20:00.850Z,15.75
2019-03-05T12:21:06.832Z,15.73
2019-03-05T12:22:08.742Z,15.72
2019-03-05T12:23:11.846Z,15.71
2019-03-05T12:24:14.294Z,15.71
2019-03-05T12:25:16.496Z,15.71
2019-03-05T12:26:18.698Z,15.70
2019-03-05T12:27:20.923Z,15.68
2019-03-05T12:28:25.117Z,15.68
2019-03-05T12:29:26.988Z,15.67
2019-03-05T12:30:29.177Z,15.66
2019-03-05T12:31:31.321Z,15.66
2019-03-05T12:32:33.678Z,15.69
2019-03-05T12:33:35.881Z,15.71
2019-03-05T12:34:38.085Z,15.72
2019-03-05T12:35:40.291Z,15.72
2019-03-05T12:36:42.490Z,15.73
2019-03-05T12:37:44.696Z,15.82
2019-03-05T12:38:46.943Z,15.85
2019-03-05T12:39:49.133Z,15.82
2019-03-05T12:40:51.335Z,15.80
2019-03-05T12:41:53.548Z,15.79
2019-03-05T12:42:55.761Z,15.78
2019-03-05T12:43:57.967Z,15.76
2019-03-05T12:45:00.388Z,15.76
2019-03-05T12:46:02.703Z,15.75
2019-03-05T12:47:04.907Z,15.76
2019-03-05T12:48:07.121Z,15.80
2019-03-05T12:49:09.327Z,15.80
2019-03-05T12:50:11.529Z,15.85
2019-03-05T12:51:13.734Z,15.94
2019-03-05T12:52:15.946Z,15.93
2019-03-05T12:53:18.186Z,15.95
2019-03-05T12:54:20.462Z,15.98
2019-03-05T12:55:22.688Z,16.02
2019-03-05T12:56:24.907Z,16.04
2019-03-05T12:57:27.105Z,16.07
2019-03-05T12:58:29.307Z,16.07
2019-03-05T12:59:31.528Z,16.08
2019-03-05T13:00:33.866Z,16.08
2019-03-05T13:01:36.063Z,16.07
2019-03-05T13:02:38.267Z,16.07
2019-03-05T13:03:40.617Z,16.09
2019-03-05T13:04:42.835Z,16.11
2019-03-05T13:05:48.043Z,16.08
2019-03-05T13:06:50.363Z,16.09
2019-03-05T13:07:55.959Z,16.10
2019-03-05T13:08:56.615Z,16.12
2019-03-05T13:09:58.824Z,16.14
2019-03-05T13:11:01.030Z,16.15
2019-03-05T13:12:03.239Z,16.16
2019-03-05T13:13:05.471Z,16.17
2019-03-05T13:14:12.172Z,16.18
2019-03-05T13:15:13.279Z,16.18
2019-03-05T13:16:15.484Z,16.17
2019-03-05T13:17:17.699Z,16.16
2019-03-05T13:18:19.935Z,16.15
2019-03-05T13:19:22.144Z,16.10
2019-03-05T13:20:26.333Z,16.06
2019-03-05T13:21:28.260Z,16.09
2019-03-05T13:22:30.416Z,16.09
2019-03-05T13:23:32.679Z,16.13
2019-03-05T13:24:34.887Z,16.16
2019-03-05T13:25:38.337Z,16.15
2019-03-05T13:26:41.023Z,16.13
2019-03-05T13:27:44.762Z,16.16
2019-03-05T13:28:47.992Z,16.14
2019-03-05T13:29:50.613Z,16.22
2019-03-05T13:30:52.798Z,16.24
2019-03-05T13:31:55.095Z,16.21